Main page
METAR-TAF:

METAR-TAF

Airports :

Milan, Italy

Malpensa Airport

latitude: 45-37N, longitude: 008-44E, elevation: 234 m

Current weather observation

The report was made 20 minutes ago, at 07:50 UTC
Wind 1 kt from variable directions
Temperature 5°C
Humidity 93%
Pressure 1025 hPa
Visibility: 3500 m
Scattered clouds at a height of 5500 ft
Broken clouds at a height of 8000 ft
mist

METAR: LIMC 040750Z VRB01KT 3500 BR SCT055 BKN080 05/04 Q1025 NOSIG

Time: 09:10 (08:10 UTC)

Forecast

The report was made 3 hours and 10 minutes ago, at 05:00 UTC
Forecast valid from 04 at 06 UTC to 05 at 12 UTC
Wind 5 kt from variable directions
Visibility: 6000 m
Broken clouds at a height of 5000 ft
Temporary
from 05 at 00 UTC to 05 at 06 UTC
Visibility: 0900 m
patches of fog

TAF: LIMC 040500Z 0406/0512 VRB05KT 6000 BKN050 TEMPO 0500/0506 0900 BCFG

Weather observations and forecasts of more than 4000 airports (METAR and TAF reports).

The available stations are represented by yellow and red dots on the map.

Hover mouse over dot to see the name of the station.

Then click to see weather observations and forecasts.

To change the map : click on the green buttons with a black cross to zoom in, on the green button with a dash to zoom out, or on the green arrows for adjacent maps.


METAR-TAF: